sensor_id;sensor_type;location;lat;lon;timestamp;P1;durP1;ratioP1;P2;durP2;ratioP2
5995;SDS011;3026;53.612;7.278;2023-04-25T00:00:57;10.10;;;2.83;;
5995;SDS011;3026;53.612;7.278;2023-04-25T00:03:23;13.23;;;3.00;;
5995;SDS011;3026;53.612;7.278;2023-04-25T00:05:54;11.03;;;2.70;;
5995;SDS011;3026;53.612;7.278;2023-04-25T00:08:24;14.43;;;3.00;;
5995;SDS011;3026;53.612;7.278;2023-04-25T00:10:51;10.27;;;2.70;;
5995;SDS011;3026;53.612;7.278;2023-04-25T00:13:18;17.63;;;2.93;;
5995;SDS011;3026;53.612;7.278;2023-04-25T00:15:45;8.27;;;3.10;;
5995;SDS011;3026;53.612;7.278;2023-04-25T00:18:13;15.93;;;3.83;;
5995;SDS011;3026;53.612;7.278;2023-04-25T00:20:40;11.27;;;3.37;;
5995;SDS011;3026;53.612;7.278;2023-04-25T00:23:09;19.13;;;3.20;;
5995;SDS011;3026;53.612;7.278;2023-04-25T00:25:39;17.43;;;3.93;;
5995;SDS011;3026;53.612;7.278;2023-04-25T00:28:05;12.43;;;3.20;;
5995;SDS011;3026;53.612;7.278;2023-04-25T00:30:32;15.60;;;2.87;;
5995;SDS011;3026;53.612;7.278;2023-04-25T00:32:59;16.57;;;3.00;;
5995;SDS011;3026;53.612;7.278;2023-04-25T00:35:29;19.23;;;3.87;;
5995;SDS011;3026;53.612;7.278;2023-04-25T00:37:55;11.70;;;2.70;;
5995;SDS011;3026;53.612;7.278;2023-04-25T00:40:22;13.10;;;2.90;;
5995;SDS011;3026;53.612;7.278;2023-04-25T00:42:51;11.83;;;2.93;;
5995;SDS011;3026;53.612;7.278;2023-04-25T00:45:19;12.03;;;2.80;;
5995;SDS011;3026;53.612;7.278;2023-04-25T00:47:46;7.97;;;2.67;;
5995;SDS011;3026;53.612;7.278;2023-04-25T00:50:13;9.97;;;3.07;;
5995;SDS011;3026;53.612;7.278;2023-04-25T00:52:41;12.70;;;2.40;;
5995;SDS011;3026;53.612;7.278;2023-04-25T00:55:10;13.50;;;3.73;;
5995;SDS011;3026;53.612;7.278;2023-04-25T00:57:38;14.53;;;2.70;;
5995;SDS011;3026;53.612;7.278;2023-04-25T01:00:10;17.73;;;3.47;;
5995;SDS011;3026;53.612;7.278;2023-04-25T01:02:38;15.23;;;2.80;;
5995;SDS011;3026;53.612;7.278;2023-04-25T01:05:07;19.77;;;3.47;;
5995;SDS011;3026;53.612;7.278;2023-04-25T01:07:34;14.27;;;3.07;;
5995;SDS011;3026;53.612;7.278;2023-04-25T01:10:02;12.63;;;2.57;;
5995;SDS011;3026;53.612;7.278;2023-04-25T01:12:30;16.23;;;3.37;;
5995;SDS011;3026;53.612;7.278;2023-04-25T01:14:57;15.47;;;3.67;;
5995;SDS011;3026;53.612;7.278;2023-04-25T01:17:25;15.40;;;3.17;;
5995;SDS011;3026;53.612;7.278;2023-04-25T01:19:52;11.60;;;3.50;;
5995;SDS011;3026;53.612;7.278;2023-04-25T01:22:21;10.07;;;3.20;;
5995;SDS011;3026;53.612;7.278;2023-04-25T01:24:47;8.23;;;2.17;;
5995;SDS011;3026;53.612;7.278;2023-04-25T01:27:15;11.97;;;2.87;;
5995;SDS011;3026;53.612;7.278;2023-04-25T01:29:42;10.73;;;2.10;;
5995;SDS011;3026;53.612;7.278;2023-04-25T01:32:10;12.17;;;2.70;;
5995;SDS011;3026;53.612;7.278;2023-04-25T01:34:37;7.50;;;1.80;;
5995;SDS011;3026;53.612;7.278;2023-04-25T01:37:04;8.53;;;2.30;;
5995;SDS011;3026;53.612;7.278;2023-04-25T01:39:32;11.20;;;2.43;;
5995;SDS011;3026;53.612;7.278;2023-04-25T01:41:59;8.63;;;1.93;;
5995;SDS011;3026;53.612;7.278;2023-04-25T01:44:27;9.53;;;2.60;;
5995;SDS011;3026;53.612;7.278;2023-04-25T01:46:54;10.67;;;2.80;;
5995;SDS011;3026;53.612;7.278;2023-04-25T01:49:21;15.47;;;2.93;;
5995;SDS011;3026;53.612;7.278;2023-04-25T01:51:48;11.03;;;2.27;;
5995;SDS011;3026;53.612;7.278;2023-04-25T01:54:15;9.67;;;2.53;;
5995;SDS011;3026;53.612;7.278;2023-04-25T01:56:49;9.53;;;2.00;;
5995;SDS011;3026;53.612;7.278;2023-04-25T01:59:16;12.80;;;1.90;;
5995;SDS011;3026;53.612;7.278;2023-04-25T02:01:45;15.30;;;2.93;;
5995;SDS011;3026;53.612;7.278;2023-04-25T02:04:11;12.93;;;2.27;;
5995;SDS011;3026;53.612;7.278;2023-04-25T02:06:38;12.33;;;2.50;;
5995;SDS011;3026;53.612;7.278;2023-04-25T02:09:05;15.80;;;2.80;;
5995;SDS011;3026;53.612;7.278;2023-04-25T02:11:32;12.33;;;2.50;;
5995;SDS011;3026;53.612;7.278;2023-04-25T02:14:00;13.23;;;2.43;;
5995;SDS011;3026;53.612;7.278;2023-04-25T02:16:27;6.90;;;2.30;;
5995;SDS011;3026;53.612;7.278;2023-04-25T02:18:55;13.57;;;2.80;;
5995;SDS011;3026;53.612;7.278;2023-04-25T02:21:22;9.83;;;2.40;;
5995;SDS011;3026;53.612;7.278;2023-04-25T02:23:49;8.97;;;2.00;;
5995;SDS011;3026;53.612;7.278;2023-04-25T02:26:17;7.70;;;1.83;;
5995;SDS011;3026;53.612;7.278;2023-04-25T02:28:43;6.47;;;2.10;;
5995;SDS011;3026;53.612;7.278;2023-04-25T02:31:12;6.93;;;1.50;;
5995;SDS011;3026;53.612;7.278;2023-04-25T02:33:38;10.33;;;3.20;;
5995;SDS011;3026;53.612;7.278;2023-04-25T02:36:06;8.83;;;2.60;;
5995;SDS011;3026;53.612;7.278;2023-04-25T02:38:33;10.63;;;2.07;;
5995;SDS011;3026;53.612;7.278;2023-04-25T02:41:00;11.03;;;2.00;;
5995;SDS011;3026;53.612;7.278;2023-04-25T02:43:27;12.60;;;2.30;;
5995;SDS011;3026;53.612;7.278;2023-04-25T02:45:54;9.60;;;2.37;;
5995;SDS011;3026;53.612;7.278;2023-04-25T02:48:22;10.67;;;2.50;;
5995;SDS011;3026;53.612;7.278;2023-04-25T02:50:49;8.37;;;2.10;;
5995;SDS011;3026;53.612;7.278;2023-04-25T02:53:16;14.17;;;2.60;;
5995;SDS011;3026;53.612;7.278;2023-04-25T02:55:43;10.43;;;2.27;;
5995;SDS011;3026;53.612;7.278;2023-04-25T02:58:10;12.87;;;2.53;;
5995;SDS011;3026;53.612;7.278;2023-04-25T03:00:37;6.80;;;2.00;;
5995;SDS011;3026;53.612;7.278;2023-04-25T03:03:04;8.77;;;2.77;;
5995;SDS011;3026;53.612;7.278;2023-04-25T03:05:32;11.03;;;2.13;;
5995;SDS011;3026;53.612;7.278;2023-04-25T03:07:59;12.87;;;2.37;;
5995;SDS011;3026;53.612;7.278;2023-04-25T03:10:26;7.90;;;2.23;;
5995;SDS011;3026;53.612;7.278;2023-04-25T03:12:53;7.63;;;1.97;;
5995;SDS011;3026;53.612;7.278;2023-04-25T03:15:19;10.33;;;2.50;;
5995;SDS011;3026;53.612;7.278;2023-04-25T03:17:47;7.23;;;1.97;;
5995;SDS011;3026;53.612;7.278;2023-04-25T03:20:13;13.70;;;2.57;;
5995;SDS011;3026;53.612;7.278;2023-04-25T03:22:42;12.50;;;2.77;;
5995;SDS011;3026;53.612;7.278;2023-04-25T03:25:09;9.40;;;2.23;;
5995;SDS011;3026;53.612;7.278;2023-04-25T03:27:36;14.63;;;2.47;;
5995;SDS011;3026;53.612;7.278;2023-04-25T03:30:03;19.17;;;3.10;;
5995;SDS011;3026;53.612;7.278;2023-04-25T03:32:31;9.37;;;2.17;;
5995;SDS011;3026;53.612;7.278;2023-04-25T03:34:58;7.53;;;2.30;;
5995;SDS011;3026;53.612;7.278;2023-04-25T03:37:25;13.43;;;2.50;;
5995;SDS011;3026;53.612;7.278;2023-04-25T03:39:54;8.83;;;2.17;;
5995;SDS011;3026;53.612;7.278;2023-04-25T03:42:20;8.53;;;2.20;;
5995;SDS011;3026;53.612;7.278;2023-04-25T03:44:48;8.50;;;2.03;;
5995;SDS011;3026;53.612;7.278;2023-04-25T03:47:21;7.30;;;1.50;;
5995;SDS011;3026;53.612;7.278;2023-04-25T03:49:48;5.77;;;1.40;;
5995;SDS011;3026;53.612;7.278;2023-04-25T03:52:16;4.43;;;1.47;;
5995;SDS011;3026;53.612;7.278;2023-04-25T03:54:43;5.97;;;1.87;;
5995;SDS011;3026;53.612;7.278;2023-04-25T03:57:12;8.20;;;2.00;;
5995;SDS011;3026;53.612;7.278;2023-04-25T03:59:38;9.70;;;2.10;;
5995;SDS011;3026;53.612;7.278;2023-04-25T04:02:05;5.83;;;1.60;;
5995;SDS011;3026;53.612;7.278;2023-04-25T04:04:32;8.27;;;1.60;;
5995;SDS011;3026;53.612;7.278;2023-04-25T04:06:59;9.37;;;1.70;;
5995;SDS011;3026;53.612;7.278;2023-04-25T04:09:26;6.03;;;1.43;;
5995;SDS011;3026;53.612;7.278;2023-04-25T04:11:53;9.77;;;1.53;;
5995;SDS011;3026;53.612;7.278;2023-04-25T04:14:21;6.43;;;2.67;;
5995;SDS011;3026;53.612;7.278;2023-04-25T04:16:48;7.57;;;1.70;;
5995;SDS011;3026;53.612;7.278;2023-04-25T04:19:17;5.03;;;1.57;;
5995;SDS011;3026;53.612;7.278;2023-04-25T04:21:43;7.13;;;1.27;;
5995;SDS011;3026;53.612;7.278;2023-04-25T04:24:10;9.00;;;2.20;;
5995;SDS011;3026;53.612;7.278;2023-04-25T04:26:37;6.70;;;2.07;;
5995;SDS011;3026;53.612;7.278;2023-04-25T04:29:04;6.00;;;1.60;;
5995;SDS011;3026;53.612;7.278;2023-04-25T04:31:33;11.50;;;2.30;;
5995;SDS011;3026;53.612;7.278;2023-04-25T04:34:00;4.30;;;1.67;;
5995;SDS011;3026;53.612;7.278;2023-04-25T04:36:28;7.03;;;1.90;;
5995;SDS011;3026;53.612;7.278;2023-04-25T04:38:55;7.93;;;1.80;;
5995;SDS011;3026;53.612;7.278;2023-04-25T04:41:22;9.67;;;2.10;;
5995;SDS011;3026;53.612;7.278;2023-04-25T04:43:49;9.07;;;2.03;;
5995;SDS011;3026;53.612;7.278;2023-04-25T04:46:18;8.63;;;2.43;;
5995;SDS011;3026;53.612;7.278;2023-04-25T04:48:46;7.53;;;1.50;;
5995;SDS011;3026;53.612;7.278;2023-04-25T04:51:13;9.90;;;1.67;;
5995;SDS011;3026;53.612;7.278;2023-04-25T04:53:40;11.57;;;2.30;;
5995;SDS011;3026;53.612;7.278;2023-04-25T04:56:07;5.73;;;1.60;;
5995;SDS011;3026;53.612;7.278;2023-04-25T04:58:33;5.67;;;1.53;;
5995;SDS011;3026;53.612;7.278;2023-04-25T05:01:01;7.87;;;2.00;;
5995;SDS011;3026;53.612;7.278;2023-04-25T05:03:28;10.13;;;1.87;;
5995;SDS011;3026;53.612;7.278;2023-04-25T05:05:56;9.87;;;2.13;;
5995;SDS011;3026;53.612;7.278;2023-04-25T05:08:23;9.03;;;1.63;;
5995;SDS011;3026;53.612;7.278;2023-04-25T05:10:50;9.63;;;2.17;;
5995;SDS011;3026;53.612;7.278;2023-04-25T05:13:17;6.90;;;1.77;;
5995;SDS011;3026;53.612;7.278;2023-04-25T05:15:44;5.10;;;1.53;;
5995;SDS011;3026;53.612;7.278;2023-04-25T05:18:10;6.17;;;1.80;;
5995;SDS011;3026;53.612;7.278;2023-04-25T05:20:37;7.93;;;1.47;;
5995;SDS011;3026;53.612;7.278;2023-04-25T05:23:05;9.70;;;2.00;;
5995;SDS011;3026;53.612;7.278;2023-04-25T05:25:32;19.67;;;2.67;;
5995;SDS011;3026;53.612;7.278;2023-04-25T05:27:59;11.30;;;1.97;;
5995;SDS011;3026;53.612;7.278;2023-04-25T05:30:26;8.63;;;2.27;;
5995;SDS011;3026;53.612;7.278;2023-04-25T05:32:54;5.67;;;1.80;;
5995;SDS011;3026;53.612;7.278;2023-04-25T05:35:21;6.03;;;1.83;;
5995;SDS011;3026;53.612;7.278;2023-04-25T05:37:48;9.37;;;2.17;;
5995;SDS011;3026;53.612;7.278;2023-04-25T05:40:16;15.00;;;2.17;;
5995;SDS011;3026;53.612;7.278;2023-04-25T05:42:43;6.77;;;1.80;;
5995;SDS011;3026;53.612;7.278;2023-04-25T05:45:10;9.93;;;1.83;;
5995;SDS011;3026;53.612;7.278;2023-04-25T05:47:37;7.80;;;2.00;;
5995;SDS011;3026;53.612;7.278;2023-04-25T05:50:04;9.63;;;2.07;;
5995;SDS011;3026;53.612;7.278;2023-04-25T05:52:31;9.93;;;2.40;;
5995;SDS011;3026;53.612;7.278;2023-04-25T05:54:58;7.80;;;2.20;;
5995;SDS011;3026;53.612;7.278;2023-04-25T05:57:26;6.20;;;1.90;;
5995;SDS011;3026;53.612;7.278;2023-04-25T05:59:53;8.53;;;2.40;;
5995;SDS011;3026;53.612;7.278;2023-04-25T06:02:20;9.13;;;2.43;;
5995;SDS011;3026;53.612;7.278;2023-04-25T06:04:48;5.97;;;1.30;;
5995;SDS011;3026;53.612;7.278;2023-04-25T06:07:16;6.23;;;1.80;;
5995;SDS011;3026;53.612;7.278;2023-04-25T06:09:43;12.03;;;2.03;;
5995;SDS011;3026;53.612;7.278;2023-04-25T06:12:09;7.87;;;1.50;;
5995;SDS011;3026;53.612;7.278;2023-04-25T06:14:38;7.90;;;1.97;;
5995;SDS011;3026;53.612;7.278;2023-04-25T06:17:05;6.50;;;1.50;;
5995;SDS011;3026;53.612;7.278;2023-04-25T06:19:33;6.10;;;2.07;;
5995;SDS011;3026;53.612;7.278;2023-04-25T06:22:01;6.83;;;2.10;;
5995;SDS011;3026;53.612;7.278;2023-04-25T06:24:28;10.93;;;2.27;;
5995;SDS011;3026;53.612;7.278;2023-04-25T06:26:55;11.23;;;2.40;;
5995;SDS011;3026;53.612;7.278;2023-04-25T06:29:22;6.73;;;2.03;;
5995;SDS011;3026;53.612;7.278;2023-04-25T06:31:50;6.70;;;1.70;;
5995;SDS011;3026;53.612;7.278;2023-04-25T06:34:17;11.27;;;2.10;;
5995;SDS011;3026;53.612;7.278;2023-04-25T06:36:44;6.03;;;2.37;;
5995;SDS011;3026;53.612;7.278;2023-04-25T06:39:10;11.13;;;1.47;;
5995;SDS011;3026;53.612;7.278;2023-04-25T06:41:37;5.53;;;1.43;;
5995;SDS011;3026;53.612;7.278;2023-04-25T06:44:04;7.37;;;2.07;;
5995;SDS011;3026;53.612;7.278;2023-04-25T06:46:31;8.20;;;1.57;;
5995;SDS011;3026;53.612;7.278;2023-04-25T06:48:59;12.60;;;1.93;;
5995;SDS011;3026;53.612;7.278;2023-04-25T06:51:26;11.63;;;2.63;;
5995;SDS011;3026;53.612;7.278;2023-04-25T06:53:54;6.10;;;1.80;;
5995;SDS011;3026;53.612;7.278;2023-04-25T06:56:21;7.03;;;1.63;;
5995;SDS011;3026;53.612;7.278;2023-04-25T06:58:48;10.83;;;1.80;;
5995;SDS011;3026;53.612;7.278;2023-04-25T07:01:15;9.77;;;1.67;;
5995;SDS011;3026;53.612;7.278;2023-04-25T07:03:42;5.93;;;1.20;;
5995;SDS011;3026;53.612;7.278;2023-04-25T07:06:10;4.97;;;0.90;;
5995;SDS011;3026;53.612;7.278;2023-04-25T07:08:37;2.10;;;0.80;;
5995;SDS011;3026;53.612;7.278;2023-04-25T07:11:03;2.90;;;0.90;;
5995;SDS011;3026;53.612;7.278;2023-04-25T07:13:30;6.00;;;1.10;;
5995;SDS011;3026;53.612;7.278;2023-04-25T07:15:57;3.60;;;1.23;;
5995;SDS011;3026;53.612;7.278;2023-04-25T07:18:25;5.80;;;1.53;;
5995;SDS011;3026;53.612;7.278;2023-04-25T07:20:52;2.50;;;0.80;;
5995;SDS011;3026;53.612;7.278;2023-04-25T07:23:20;6.40;;;1.03;;
5995;SDS011;3026;53.612;7.278;2023-04-25T07:25:47;4.57;;;1.87;;
5995;SDS011;3026;53.612;7.278;2023-04-25T07:28:13;3.23;;;1.07;;
5995;SDS011;3026;53.612;7.278;2023-04-25T07:30:40;8.30;;;1.47;;
5995;SDS011;3026;53.612;7.278;2023-04-25T07:33:07;5.43;;;1.47;;
5995;SDS011;3026;53.612;7.278;2023-04-25T07:35:34;6.53;;;1.67;;
5995;SDS011;3026;53.612;7.278;2023-04-25T07:38:01;5.90;;;1.90;;
5995;SDS011;3026;53.612;7.278;2023-04-25T07:40:29;11.30;;;1.93;;
5995;SDS011;3026;53.612;7.278;2023-04-25T07:42:56;9.50;;;1.93;;
5995;SDS011;3026;53.612;7.278;2023-04-25T07:45:23;12.00;;;1.83;;
5995;SDS011;3026;53.612;7.278;2023-04-25T07:47:50;10.00;;;1.70;;
5995;SDS011;3026;53.612;7.278;2023-04-25T07:50:17;9.03;;;2.13;;
5995;SDS011;3026;53.612;7.278;2023-04-25T07:52:44;10.27;;;1.77;;
5995;SDS011;3026;53.612;7.278;2023-04-25T07:55:10;8.47;;;2.23;;
5995;SDS011;3026;53.612;7.278;2023-04-25T07:57:39;10.60;;;2.77;;
5995;SDS011;3026;53.612;7.278;2023-04-25T08:00:06;9.33;;;2.07;;
5995;SDS011;3026;53.612;7.278;2023-04-25T08:02:37;7.73;;;2.23;;
5995;SDS011;3026;53.612;7.278;2023-04-25T08:05:04;10.47;;;2.33;;
5995;SDS011;3026;53.612;7.278;2023-04-25T08:07:33;5.77;;;1.47;;
5995;SDS011;3026;53.612;7.278;2023-04-25T08:10:00;2.27;;;1.10;;
5995;SDS011;3026;53.612;7.278;2023-04-25T08:12:26;2.77;;;0.97;;
5995;SDS011;3026;53.612;7.278;2023-04-25T08:14:55;4.47;;;1.00;;
5995;SDS011;3026;53.612;7.278;2023-04-25T08:17:21;5.67;;;1.00;;
5995;SDS011;3026;53.612;7.278;2023-04-25T08:19:48;3.20;;;1.20;;
5995;SDS011;3026;53.612;7.278;2023-04-25T08:22:15;3.57;;;0.90;;
5995;SDS011;3026;53.612;7.278;2023-04-25T08:24:42;5.47;;;1.10;;
5995;SDS011;3026;53.612;7.278;2023-04-25T08:27:09;3.13;;;1.30;;
5995;SDS011;3026;53.612;7.278;2023-04-25T08:29:36;6.37;;;1.60;;
5995;SDS011;3026;53.612;7.278;2023-04-25T08:32:04;7.30;;;1.60;;
5995;SDS011;3026;53.612;7.278;2023-04-25T08:34:31;5.93;;;1.70;;
5995;SDS011;3026;53.612;7.278;2023-04-25T08:36:58;7.43;;;1.90;;
5995;SDS011;3026;53.612;7.278;2023-04-25T08:39:25;6.83;;;1.63;;
5995;SDS011;3026;53.612;7.278;2023-04-25T08:41:52;11.40;;;1.87;;
5995;SDS011;3026;53.612;7.278;2023-04-25T08:44:19;9.70;;;2.07;;
5995;SDS011;3026;53.612;7.278;2023-04-25T08:46:48;12.70;;;2.00;;
5995;SDS011;3026;53.612;7.278;2023-04-25T08:49:17;6.30;;;1.50;;
5995;SDS011;3026;53.612;7.278;2023-04-25T08:51:45;8.23;;;1.97;;
5995;SDS011;3026;53.612;7.278;2023-04-25T08:54:13;8.57;;;3.00;;
5995;SDS011;3026;53.612;7.278;2023-04-25T08:56:41;5.90;;;1.70;;
5995;SDS011;3026;53.612;7.278;2023-04-25T08:59:11;5.47;;;1.57;;
5995;SDS011;3026;53.612;7.278;2023-04-25T09:01:38;6.23;;;1.60;;
5995;SDS011;3026;53.612;7.278;2023-04-25T09:04:05;5.70;;;1.43;;
5995;SDS011;3026;53.612;7.278;2023-04-25T09:06:33;13.90;;;2.80;;
5995;SDS011;3026;53.612;7.278;2023-04-25T09:09:02;6.07;;;1.47;;
5995;SDS011;3026;53.612;7.278;2023-04-25T09:11:33;15.40;;;2.87;;
5995;SDS011;3026;53.612;7.278;2023-04-25T09:14:10;9.20;;;2.23;;
5995;SDS011;3026;53.612;7.278;2023-04-25T09:19:25;7.60;;;1.77;;
5995;SDS011;3026;53.612;7.278;2023-04-25T09:21:55;11.07;;;1.97;;
5995;SDS011;3026;53.612;7.278;2023-04-25T09:24:32;4.90;;;1.47;;
5995;SDS011;3026;53.612;7.278;2023-04-25T09:27:02;8.57;;;3.00;;
5995;SDS011;3026;53.612;7.278;2023-04-25T09:29:30;7.43;;;1.97;;
5995;SDS011;3026;53.612;7.278;2023-04-25T09:32:10;7.37;;;1.70;;
5995;SDS011;3026;53.612;7.278;2023-04-25T09:34:39;7.23;;;1.80;;
5995;SDS011;3026;53.612;7.278;2023-04-25T09:37:08;9.70;;;2.00;;
5995;SDS011;3026;53.612;7.278;2023-04-25T09:39:36;7.83;;;1.50;;
5995;SDS011;3026;53.612;7.278;2023-04-25T09:42:03;9.80;;;2.17;;
5995;SDS011;3026;53.612;7.278;2023-04-25T09:44:30;7.07;;;1.83;;
5995;SDS011;3026;53.612;7.278;2023-04-25T09:46:57;7.70;;;1.90;;
5995;SDS011;3026;53.612;7.278;2023-04-25T09:49:24;5.70;;;2.07;;
5995;SDS011;3026;53.612;7.278;2023-04-25T09:51:55;9.53;;;2.00;;
5995;SDS011;3026;53.612;7.278;2023-04-25T09:54:24;5.33;;;2.13;;
5995;SDS011;3026;53.612;7.278;2023-04-25T09:56:52;5.80;;;1.43;;
5995;SDS011;3026;53.612;7.278;2023-04-25T09:59:20;5.47;;;1.50;;
5995;SDS011;3026;53.612;7.278;2023-04-25T10:01:48;14.17;;;1.87;;
5995;SDS011;3026;53.612;7.278;2023-04-25T10:04:18;3.77;;;1.27;;
5995;SDS011;3026;53.612;7.278;2023-04-25T10:06:48;6.60;;;1.60;;
5995;SDS011;3026;53.612;7.278;2023-04-25T10:09:15;8.37;;;1.60;;
5995;SDS011;3026;53.612;7.278;2023-04-25T10:11:46;4.03;;;1.40;;
5995;SDS011;3026;53.612;7.278;2023-04-25T10:14:14;6.23;;;1.67;;
5995;SDS011;3026;53.612;7.278;2023-04-25T10:16:42;6.73;;;1.90;;
5995;SDS011;3026;53.612;7.278;2023-04-25T10:19:09;7.67;;;1.73;;
5995;SDS011;3026;53.612;7.278;2023-04-25T10:21:36;9.03;;;1.80;;
5995;SDS011;3026;53.612;7.278;2023-04-25T10:24:22;7.23;;;1.43;;
5995;SDS011;3026;53.612;7.278;2023-04-25T10:26:51;12.07;;;1.97;;
5995;SDS011;3026;53.612;7.278;2023-04-25T10:29:21;9.33;;;2.57;;
5995;SDS011;3026;53.612;7.278;2023-04-25T10:31:49;14.43;;;2.20;;
5995;SDS011;3026;53.612;7.278;2023-04-25T10:34:16;8.63;;;1.97;;
5995;SDS011;3026;53.612;7.278;2023-04-25T10:36:46;6.73;;;1.97;;
5995;SDS011;3026;53.612;7.278;2023-04-25T10:39:21;5.43;;;1.70;;
5995;SDS011;3026;53.612;7.278;2023-04-25T10:41:55;6.60;;;1.47;;
5995;SDS011;3026;53.612;7.278;2023-04-25T10:44:23;5.03;;;1.70;;
5995;SDS011;3026;53.612;7.278;2023-04-25T10:46:54;5.83;;;1.30;;
5995;SDS011;3026;53.612;7.278;2023-04-25T10:49:29;9.20;;;1.83;;
5995;SDS011;3026;53.612;7.278;2023-04-25T10:52:12;5.43;;;1.57;;
5995;SDS011;3026;53.612;7.278;2023-04-25T10:54:41;4.63;;;1.47;;
5995;SDS011;3026;53.612;7.278;2023-04-25T10:59:57;7.03;;;1.57;;
5995;SDS011;3026;53.612;7.278;2023-04-25T11:02:26;5.60;;;1.17;;
5995;SDS011;3026;53.612;7.278;2023-04-25T11:04:53;2.23;;;1.13;;
5995;SDS011;3026;53.612;7.278;2023-04-25T11:07:23;3.90;;;1.10;;
5995;SDS011;3026;53.612;7.278;2023-04-25T11:09:58;3.60;;;1.03;;
5995;SDS011;3026;53.612;7.278;2023-04-25T11:12:31;6.23;;;1.60;;
5995;SDS011;3026;53.612;7.278;2023-04-25T11:14:58;4.50;;;1.30;;
5995;SDS011;3026;53.612;7.278;2023-04-25T11:17:26;4.40;;;1.23;;
5995;SDS011;3026;53.612;7.278;2023-04-25T11:19:53;6.73;;;1.70;;
5995;SDS011;3026;53.612;7.278;2023-04-25T11:22:21;4.10;;;1.47;;
5995;SDS011;3026;53.612;7.278;2023-04-25T11:24:48;8.77;;;1.80;;
5995;SDS011;3026;53.612;7.278;2023-04-25T11:27:15;8.33;;;1.90;;
5995;SDS011;3026;53.612;7.278;2023-04-25T11:29:43;7.33;;;1.80;;
5995;SDS011;3026;53.612;7.278;2023-04-25T11:32:13;5.83;;;1.50;;
5995;SDS011;3026;53.612;7.278;2023-04-25T11:34:42;7.20;;;1.30;;
5995;SDS011;3026;53.612;7.278;2023-04-25T11:37:10;9.70;;;1.67;;
5995;SDS011;3026;53.612;7.278;2023-04-25T11:39:39;4.77;;;1.93;;
5995;SDS011;3026;53.612;7.278;2023-04-25T11:42:11;10.60;;;2.27;;
5995;SDS011;3026;53.612;7.278;2023-04-25T11:44:38;6.47;;;1.63;;
5995;SDS011;3026;53.612;7.278;2023-04-25T11:47:07;4.43;;;1.70;;
5995;SDS011;3026;53.612;7.278;2023-04-25T11:49:34;6.10;;;1.70;;
5995;SDS011;3026;53.612;7.278;2023-04-25T11:52:02;9.33;;;1.63;;
5995;SDS011;3026;53.612;7.278;2023-04-25T11:54:28;6.67;;;2.00;;
5995;SDS011;3026;53.612;7.278;2023-04-25T11:56:55;6.00;;;1.70;;
5995;SDS011;3026;53.612;7.278;2023-04-25T11:59:23;6.23;;;1.80;;
5995;SDS011;3026;53.612;7.278;2023-04-25T12:01:51;10.27;;;1.80;;
5995;SDS011;3026;53.612;7.278;2023-04-25T12:04:21;9.93;;;2.57;;
5995;SDS011;3026;53.612;7.278;2023-04-25T12:06:49;13.23;;;2.23;;
5995;SDS011;3026;53.612;7.278;2023-04-25T12:09:17;10.07;;;1.80;;
5995;SDS011;3026;53.612;7.278;2023-04-25T12:11:47;7.47;;;2.07;;
5995;SDS011;3026;53.612;7.278;2023-04-25T12:14:22;5.77;;;2.13;;
5995;SDS011;3026;53.612;7.278;2023-04-25T12:16:50;5.60;;;1.63;;
5995;SDS011;3026;53.612;7.278;2023-04-25T12:19:19;8.73;;;1.60;;
5995;SDS011;3026;53.612;7.278;2023-04-25T12:21:48;9.27;;;2.10;;
5995;SDS011;3026;53.612;7.278;2023-04-25T12:24:15;8.90;;;1.60;;
5995;SDS011;3026;53.612;7.278;2023-04-25T12:26:48;5.87;;;1.77;;
5995;SDS011;3026;53.612;7.278;2023-04-25T12:29:16;10.80;;;2.03;;
5995;SDS011;3026;53.612;7.278;2023-04-25T12:31:47;6.87;;;1.80;;
5995;SDS011;3026;53.612;7.278;2023-04-25T12:34:15;4.23;;;1.60;;
5995;SDS011;3026;53.612;7.278;2023-04-25T12:36:43;7.90;;;1.70;;
5995;SDS011;3026;53.612;7.278;2023-04-25T12:39:14;8.90;;;2.10;;
5995;SDS011;3026;53.612;7.278;2023-04-25T12:41:42;7.90;;;2.17;;
5995;SDS011;3026;53.612;7.278;2023-04-25T12:44:09;4.70;;;1.70;;
5995;SDS011;3026;53.612;7.278;2023-04-25T12:46:36;6.80;;;2.10;;
5995;SDS011;3026;53.612;7.278;2023-04-25T12:49:03;9.97;;;2.00;;
5995;SDS011;3026;53.612;7.278;2023-04-25T12:51:31;10.93;;;2.57;;
5995;SDS011;3026;53.612;7.278;2023-04-25T12:53:59;9.13;;;1.90;;
5995;SDS011;3026;53.612;7.278;2023-04-25T12:56:26;12.07;;;1.77;;
5995;SDS011;3026;53.612;7.278;2023-04-25T12:58:53;6.80;;;1.50;;
5995;SDS011;3026;53.612;7.278;2023-04-25T13:01:21;6.40;;;1.40;;
5995;SDS011;3026;53.612;7.278;2023-04-25T13:03:47;9.53;;;1.77;;
5995;SDS011;3026;53.612;7.278;2023-04-25T13:06:14;9.77;;;1.63;;
5995;SDS011;3026;53.612;7.278;2023-04-25T13:08:43;7.43;;;1.50;;
5995;SDS011;3026;53.612;7.278;2023-04-25T13:11:11;6.47;;;1.60;;
5995;SDS011;3026;53.612;7.278;2023-04-25T13:13:39;9.23;;;2.20;;
5995;SDS011;3026;53.612;7.278;2023-04-25T13:16:07;5.93;;;1.80;;
5995;SDS011;3026;53.612;7.278;2023-04-25T13:18:34;6.63;;;1.80;;
5995;SDS011;3026;53.612;7.278;2023-04-25T13:21:01;4.20;;;1.13;;
5995;SDS011;3026;53.612;7.278;2023-04-25T13:23:28;11.57;;;1.83;;
5995;SDS011;3026;53.612;7.278;2023-04-25T13:25:55;5.13;;;1.60;;
5995;SDS011;3026;53.612;7.278;2023-04-25T13:28:24;4.07;;;1.33;;
5995;SDS011;3026;53.612;7.278;2023-04-25T13:30:51;11.13;;;1.60;;
5995;SDS011;3026;53.612;7.278;2023-04-25T13:33:19;10.40;;;2.20;;
5995;SDS011;3026;53.612;7.278;2023-04-25T13:35:46;7.00;;;1.80;;
5995;SDS011;3026;53.612;7.278;2023-04-25T13:38:18;8.37;;;1.80;;
5995;SDS011;3026;53.612;7.278;2023-04-25T13:40:46;5.10;;;1.60;;
5995;SDS011;3026;53.612;7.278;2023-04-25T13:43:13;9.70;;;1.90;;
5995;SDS011;3026;53.612;7.278;2023-04-25T13:45:41;7.27;;;1.50;;
5995;SDS011;3026;53.612;7.278;2023-04-25T13:48:08;7.93;;;1.50;;
5995;SDS011;3026;53.612;7.278;2023-04-25T13:50:35;6.20;;;1.53;;
5995;SDS011;3026;53.612;7.278;2023-04-25T13:53:01;5.60;;;1.77;;
5995;SDS011;3026;53.612;7.278;2023-04-25T13:55:28;5.53;;;1.80;;
5995;SDS011;3026;53.612;7.278;2023-04-25T13:57:55;7.30;;;2.10;;
5995;SDS011;3026;53.612;7.278;2023-04-25T14:00:22;7.83;;;1.77;;
5995;SDS011;3026;53.612;7.278;2023-04-25T14:02:50;7.60;;;1.77;;
5995;SDS011;3026;53.612;7.278;2023-04-25T14:05:17;5.83;;;1.70;;
5995;SDS011;3026;53.612;7.278;2023-04-25T14:07:44;7.13;;;1.90;;
5995;SDS011;3026;53.612;7.278;2023-04-25T14:10:11;7.33;;;1.97;;
5995;SDS011;3026;53.612;7.278;2023-04-25T14:12:38;5.50;;;1.73;;
5995;SDS011;3026;53.612;7.278;2023-04-25T14:15:05;4.37;;;1.27;;
5995;SDS011;3026;53.612;7.278;2023-04-25T14:17:32;8.23;;;1.37;;
5995;SDS011;3026;53.612;7.278;2023-04-25T14:20:01;4.90;;;1.57;;
5995;SDS011;3026;53.612;7.278;2023-04-25T14:22:30;8.00;;;1.60;;
5995;SDS011;3026;53.612;7.278;2023-04-25T14:24:57;8.80;;;1.83;;
5995;SDS011;3026;53.612;7.278;2023-04-25T14:27:24;8.03;;;1.33;;
5995;SDS011;3026;53.612;7.278;2023-04-25T14:29:51;9.37;;;2.07;;
5995;SDS011;3026;53.612;7.278;2023-04-25T14:32:18;2.97;;;1.10;;
5995;SDS011;3026;53.612;7.278;2023-04-25T14:34:45;6.30;;;1.50;;
5995;SDS011;3026;53.612;7.278;2023-04-25T14:37:13;6.43;;;1.40;;
5995;SDS011;3026;53.612;7.278;2023-04-25T14:39:41;5.47;;;1.47;;
5995;SDS011;3026;53.612;7.278;2023-04-25T14:42:08;9.47;;;2.00;;
5995;SDS011;3026;53.612;7.278;2023-04-25T14:44:36;7.40;;;1.63;;
5995;SDS011;3026;53.612;7.278;2023-04-25T14:47:03;7.23;;;2.10;;
5995;SDS011;3026;53.612;7.278;2023-04-25T14:49:29;7.97;;;1.70;;
5995;SDS011;3026;53.612;7.278;2023-04-25T14:51:58;6.80;;;1.63;;
5995;SDS011;3026;53.612;7.278;2023-04-25T14:54:26;10.00;;;2.27;;
5995;SDS011;3026;53.612;7.278;2023-04-25T14:56:53;10.73;;;2.13;;
5995;SDS011;3026;53.612;7.278;2023-04-25T14:59:20;7.17;;;1.90;;
5995;SDS011;3026;53.612;7.278;2023-04-25T15:01:46;8.80;;;1.50;;
5995;SDS011;3026;53.612;7.278;2023-04-25T15:04:13;8.70;;;1.93;;
5995;SDS011;3026;53.612;7.278;2023-04-25T15:06:42;5.73;;;1.53;;
5995;SDS011;3026;53.612;7.278;2023-04-25T15:09:09;6.53;;;1.73;;
5995;SDS011;3026;53.612;7.278;2023-04-25T15:11:37;10.53;;;1.73;;
5995;SDS011;3026;53.612;7.278;2023-04-25T15:14:04;9.53;;;1.90;;
5995;SDS011;3026;53.612;7.278;2023-04-25T15:16:31;6.27;;;1.90;;
5995;SDS011;3026;53.612;7.278;2023-04-25T15:18:58;7.30;;;1.43;;
5995;SDS011;3026;53.612;7.278;2023-04-25T15:21:27;5.50;;;1.43;;